Aeroporto :
LOGIN :

Iscrizione | Disclaimer

   EN    FR    IT 

 










Sommario :    VFR   VFR Marginale   IFR   IFR Intensivo   IFR Molto Intensivo
Visibilità : 
Base nubi : 
>= 8 km
>= 3000ft
5 / 8 km
1000 / 3000 ft
1500m / 5 km
500 / 1000 ft
800 / 1500m
200 / 500 ft
< 800m
< 200 ft
Simboli :   Temporali  Nebbia  Neve Forte  Precipitazioni Forti  Vento > 20 kt
SIGMETs :   Varie  Temporali  Ghiacco  Turbolenza  Onda orograficha  Ceneri Vulcaniche






- Altitudine del aeroporto : 177 ft
- Codice IATA : BRI


LIBD - Palese Macchie Bari

ULTIMO METAR :
  • 171820Z 19006KT CAVOK 09/05 Q1024

METARs OBSOLETI :
  • 171750Z 18003KT CAVOK 09/05 Q1024
  • 171720Z 14005KT CAVOK 10/06 Q1024
  • 171650Z 11004KT CAVOK 12/06 Q1024
  • 171620Z 10003KT CAVOK 12/06 Q1024
  • 171550Z 07005KT CAVOK 13/06 Q1024

TAF TAF LIBD
Valido dal 17 a 18 ore il 18 a 18 ore UTC


171700Z 1718/1818 VRB05KT CAVOK
BECMG 1808/1810 33010KT
BECMG 1810/1812 03010KT



MetMap, La meteo Aeronautica in un colpo d'occhio ! - Copyright ORBIFLY Dicembre 2007 - Disclaimer

ORBIFLY MET'MAP TEAM :

Programmazione e sviluppo : Alexandra Zaïnal
Concezione : Baudouin d'Aumeries
Aiuto per la programmazione : Marc-Olivier Méhu
Supporto tecnico e logistico : Manuel Goepfert
Aiuto per la traduzione : Arnaldo La Scala

Contatto : metmap@orbifly.com




FONTI E CREDITI :

   NOAA